Baxley Municipal Airport


Codes: KBHC/
Name: Baxley Municipal Airport
City: Baxley
Country: United States
Elevation: 201 ft.

Photos at Baxley Municipal Airport


   Photos courtesy of SpottingLog. You can add your own sightings and photos by signing up for a free trial today.



No photos found.

Weather at Baxley Municipal Airport


Time (UTC)DescriptionTempratureWindCloud coverageVisibilityPressureHumidity
18-Apr-2024 00:00Scattered Clouds27°C4 mph, NW33%10000m1019hPa45%
18-Apr-2024 03:00Broken Clouds23°C7 mph, SE67%10000m1019hPa57%
18-Apr-2024 06:00Overcast Clouds20°C4 mph, SW100%10000m1018hPa68%
18-Apr-2024 09:00Overcast Clouds20°C4 mph, SW100%10000m1018hPa68%
18-Apr-2024 12:00Overcast Clouds20°C4 mph, W100%10000m1019hPa78%
18-Apr-2024 15:00Overcast Clouds25°C7 mph, W100%10000m1019hPa59%
18-Apr-2024 18:00Overcast Clouds29°C7 mph, W98%10000m1018hPa43%
18-Apr-2024 21:00Overcast Clouds29°C7 mph, W100%10000m1016hPa43%
19-Apr-2024 00:00Overcast Clouds24°C4 mph, SW100%10000m1016hPa56%
19-Apr-2024 03:00Overcast Clouds23°C4 mph, NW99%10000m1017hPa61%
19-Apr-2024 06:00Overcast Clouds21°C4 mph, W99%10000m1016hPa67%
19-Apr-2024 09:00Overcast Clouds20°C4 mph, W85%10000m1016hPa73%
19-Apr-2024 12:00Light Rain21°C4 mph, W77%10000m1018hPa82%
19-Apr-2024 15:00Scattered Clouds27°C7 mph, NW25%10000m1018hPa58%
19-Apr-2024 18:00Scattered Clouds30°C9 mph, W25%10000m1016hPa44%
19-Apr-2024 21:00Scattered Clouds31°C9 mph, W41%10000m1014hPa40%
20-Apr-2024 00:00Scattered Clouds26°C4 mph, W25%10000m1015hPa60%
20-Apr-2024 03:00Few Clouds24°C4 mph, W21%10000m1016hPa68%
20-Apr-2024 06:00Few Clouds22°C7 mph, W17%10000m1016hPa73%
20-Apr-2024 09:00Few Clouds20°C4 mph, NW21%10000m1016hPa78%
20-Apr-2024 12:00Broken Clouds21°C4 mph, NW63%10000m1017hPa83%
20-Apr-2024 15:00Few Clouds27°C7 mph, W20%10000m1017hPa59%
20-Apr-2024 18:00Light Rain30°C11 mph, W28%10000m1016hPa49%
20-Apr-2024 21:00Overcast Clouds29°C9 mph, NW100%10000m1014hPa52%
21-Apr-2024 00:00Light Rain25°C7 mph, NW100%10000m1015hPa68%
21-Apr-2024 03:00Overcast Clouds23°C4 mph, NW94%10000m1016hPa74%
21-Apr-2024 06:00Light Rain21°C7 mph, NW97%10000m1015hPa89%
21-Apr-2024 09:00Light Rain19°C7 mph, NE90%10000m1014hPa88%
21-Apr-2024 12:00Overcast Clouds19°C7 mph, NE93%10000m1016hPa91%
21-Apr-2024 15:00Overcast Clouds22°C7 mph, E96%10000m1016hPa78%
21-Apr-2024 18:00Light Rain27°C0 mph, SE92%10000m1014hPa56%
21-Apr-2024 21:00Overcast Clouds28°C11 mph, W98%10000m1011hPa47%
22-Apr-2024 00:00Light Rain17°C11 mph, N99%10000m1013hPa93%
22-Apr-2024 03:00Moderate Rain16°C11 mph, N100%3804m1014hPa97%
22-Apr-2024 06:00Heavy Intensity Rain16°C4 mph, N98%10000m1013hPa95%
22-Apr-2024 09:00Overcast Clouds15°C7 mph, N100%10000m1013hPa95%
22-Apr-2024 12:00Light Rain14°C9 mph, N100%10000m1015hPa92%
22-Apr-2024 15:00Overcast Clouds15°C7 mph, NE100%10000m1016hPa87%
22-Apr-2024 18:00Overcast Clouds17°C4 mph, NE100%10000m1015hPa78%
22-Apr-2024 21:00Light Rain18°C9 mph, NW99%10000m1015hPa74%